sensor_id;sensor_type;location;lat;lon;timestamp;pressure;altitude;pressure_sealevel;temperature;humidity
38038;BME280;23843;51.320;12.340;2023-03-25T05:31:04;99223.88;;;10.10;100.00
38038;BME280;23843;51.320;12.340;2023-03-25T05:33:29;99219.13;;;10.02;100.00
38038;BME280;23843;51.320;12.340;2023-03-25T05:35:55;99224.09;;;9.94;100.00
38038;BME280;23843;51.320;12.340;2023-03-25T05:38:20;99218.59;;;9.84;100.00
38038;BME280;23843;51.320;12.340;2023-03-25T05:40:46;99222.22;;;9.83;100.00
38038;BME280;23843;51.320;12.340;2023-03-25T05:43:13;99220.50;;;9.82;100.00
38038;BME280;23843;51.320;12.340;2023-03-25T05:45:38;99229.41;;;9.81;100.00
38038;BME280;23843;51.320;12.340;2023-03-25T05:48:05;99225.06;;;9.80;100.00
38038;BME280;23843;51.320;12.340;2023-03-25T05:50:31;99224.63;;;9.86;100.00
38038;BME280;23843;51.320;12.340;2023-03-25T05:52:57;99231.81;;;10.10;100.00
38038;BME280;23843;51.320;12.340;2023-03-25T05:55:22;99228.31;;;10.35;100.00
38038;BME280;23843;51.320;12.340;2023-03-25T05:57:48;99234.00;;;11.27;94.66
38038;BME280;23843;51.320;12.340;2023-03-25T06:00:15;99249.41;;;12.37;86.78
38038;BME280;23843;51.320;12.340;2023-03-25T06:02:41;99242.72;;;13.09;77.50
38038;BME280;23843;51.320;12.340;2023-03-25T06:05:09;99257.03;;;14.03;69.85
38038;BME280;23843;51.320;12.340;2023-03-25T06:07:36;99255.84;;;14.88;62.53
38038;BME280;23843;51.320;12.340;2023-03-25T06:10:03;99258.59;;;14.77;63.02
38038;BME280;23843;51.320;12.340;2023-03-25T06:12:29;99255.75;;;13.98;63.44
38038;BME280;23843;51.320;12.340;2023-03-25T06:14:54;99268.28;;;13.44;67.85
38038;BME280;23843;51.320;12.340;2023-03-25T06:17:21;99252.91;;;13.04;70.96
38038;BME280;23843;51.320;12.340;2023-03-25T06:19:47;99272.44;;;12.59;73.32
38038;BME280;23843;51.320;12.340;2023-03-25T06:22:14;99273.53;;;12.46;76.56
38038;BME280;23843;51.320;12.340;2023-03-25T06:24:41;99272.00;;;12.32;77.08
38038;BME280;23843;51.320;12.340;2023-03-25T06:27:09;99267.63;;;12.31;81.75
38038;BME280;23843;51.320;12.340;2023-03-25T06:29:36;99267.31;;;13.34;82.42
38038;BME280;23843;51.320;12.340;2023-03-25T06:32:02;99268.94;;;14.30;67.82
38038;BME280;23843;51.320;12.340;2023-03-25T06:34:28;99261.84;;;14.71;63.27
38038;BME280;23843;51.320;12.340;2023-03-25T06:36:53;99264.38;;;14.42;63.77
38038;BME280;23843;51.320;12.340;2023-03-25T06:39:20;99264.69;;;13.97;66.90
38038;BME280;23843;51.320;12.340;2023-03-25T06:41:46;99275.94;;;13.58;68.60
38038;BME280;23843;51.320;12.340;2023-03-25T06:44:11;99270.88;;;13.12;72.32
38038;BME280;23843;51.320;12.340;2023-03-25T06:46:37;99267.97;;;12.71;75.34
38038;BME280;23843;51.320;12.340;2023-03-25T06:49:03;99271.63;;;12.59;76.95
38038;BME280;23843;51.320;12.340;2023-03-25T06:51:28;99279.84;;;12.22;80.00
38038;BME280;23843;51.320;12.340;2023-03-25T06:53:54;99278.13;;;12.21;83.27
38038;BME280;23843;51.320;12.340;2023-03-25T06:56:21;99278.72;;;12.36;84.64
38038;BME280;23843;51.320;12.340;2023-03-25T06:58:46;99274.78;;;12.41;85.37
38038;BME280;23843;51.320;12.340;2023-03-25T07:01:12;99274.03;;;12.39;81.33
38038;BME280;23843;51.320;12.340;2023-03-25T07:03:37;99278.75;;;12.58;79.01
38038;BME280;23843;51.320;12.340;2023-03-25T07:06:04;99274.16;;;13.15;73.83
38038;BME280;23843;51.320;12.340;2023-03-25T07:08:29;99276.06;;;13.24;70.67
38038;BME280;23843;51.320;12.340;2023-03-25T07:10:59;99270.13;;;13.32;69.30
38038;BME280;23843;51.320;12.340;2023-03-25T07:13:26;99277.56;;;12.95;71.70
38038;BME280;23843;51.320;12.340;2023-03-25T07:15:53;99287.41;;;12.72;74.02
38038;BME280;23843;51.320;12.340;2023-03-25T07:18:19;99289.72;;;12.42;78.74
38038;BME280;23843;51.320;12.340;2023-03-25T07:20:44;99290.81;;;12.40;80.85
38038;BME280;23843;51.320;12.340;2023-03-25T07:23:10;99300.66;;;12.04;85.82
38038;BME280;23843;51.320;12.340;2023-03-25T07:25:35;99306.16;;;11.78;91.59
38038;BME280;23843;51.320;12.340;2023-03-25T07:28:01;99305.25;;;11.67;91.96
38038;BME280;23843;51.320;12.340;2023-03-25T07:30:27;99307.59;;;11.47;94.72
38038;BME280;23843;51.320;12.340;2023-03-25T07:32:54;99322.03;;;11.43;94.65
38038;BME280;23843;51.320;12.340;2023-03-25T07:35:20;99315.00;;;11.31;96.10
38038;BME280;23843;51.320;12.340;2023-03-25T07:37:45;99308.41;;;11.12;97.19
38038;BME280;23843;51.320;12.340;2023-03-25T07:42:37;99315.34;;;10.89;100.00
38038;BME280;23843;51.320;12.340;2023-03-25T07:45:03;99320.09;;;10.97;100.00
38038;BME280;23843;51.320;12.340;2023-03-25T07:47:30;99304.75;;;10.89;100.00
38038;BME280;23843;51.320;12.340;2023-03-25T07:49:56;99306.28;;;10.81;100.00
38038;BME280;23843;51.320;12.340;2023-03-25T07:52:21;99299.59;;;10.88;100.00
38038;BME280;23843;51.320;12.340;2023-03-25T07:54:47;99310.56;;;11.07;100.00
38038;BME280;23843;51.320;12.340;2023-03-25T07:57:12;99306.78;;;11.23;100.00
38038;BME280;23843;51.320;12.340;2023-03-25T07:59:38;99302.88;;;11.16;100.00
38038;BME280;23843;51.320;12.340;2023-03-25T08:02:03;99311.09;;;11.24;100.00
38038;BME280;23843;51.320;12.340;2023-03-25T08:04:30;99300.31;;;11.38;100.00
38038;BME280;23843;51.320;12.340;2023-03-25T08:06:56;99305.28;;;11.19;100.00
38038;BME280;23843;51.320;12.340;2023-03-25T08:09:21;99313.41;;;11.28;100.00
38038;BME280;23843;51.320;12.340;2023-03-25T08:11:47;99314.78;;;11.34;100.00
38038;BME280;23843;51.320;12.340;2023-03-25T08:14:13;99310.94;;;11.38;100.00
38038;BME280;23843;51.320;12.340;2023-03-25T08:16:38;99310.25;;;11.47;100.00
38038;BME280;23843;51.320;12.340;2023-03-25T08:19:04;99315.19;;;11.76;100.00
38038;BME280;23843;51.320;12.340;2023-03-25T08:21:31;99312.38;;;12.02;100.00
38038;BME280;23843;51.320;12.340;2023-03-25T08:23:56;99313.25;;;12.25;100.00
38038;BME280;23843;51.320;12.340;2023-03-25T08:26:22;99314.81;;;12.38;99.64
38038;BME280;23843;51.320;12.340;2023-03-25T08:28:48;99317.97;;;12.43;96.34
38038;BME280;23843;51.320;12.340;2023-03-25T08:31:16;99317.97;;;12.32;97.01
38038;BME280;23843;51.320;12.340;2023-03-25T08:33:41;99322.63;;;12.06;98.22
38038;BME280;23843;51.320;12.340;2023-03-25T08:36:08;99318.28;;;11.94;100.00
38038;BME280;23843;51.320;12.340;2023-03-25T08:38:35;99315.06;;;11.77;100.00
38038;BME280;23843;51.320;12.340;2023-03-25T08:41:01;99315.94;;;11.54;100.00
38038;BME280;23843;51.320;12.340;2023-03-25T08:43:27;99317.03;;;11.51;100.00
38038;BME280;23843;51.320;12.340;2023-03-25T08:45:52;99326.97;;;11.37;100.00
38038;BME280;23843;51.320;12.340;2023-03-25T08:48:18;99322.03;;;11.43;100.00
38038;BME280;23843;51.320;12.340;2023-03-25T08:50:43;99319.19;;;11.22;100.00
38038;BME280;23843;51.320;12.340;2023-03-25T08:53:09;99318.34;;;11.22;100.00
38038;BME280;23843;51.320;12.340;2023-03-25T08:55:36;99322.22;;;11.29;100.00
38038;BME280;23843;51.320;12.340;2023-03-25T08:58:02;99323.56;;;11.10;100.00
38038;BME280;23843;51.320;12.340;2023-03-25T09:00:28;99322.41;;;11.14;100.00
38038;BME280;23843;51.320;12.340;2023-03-25T09:02:54;99320.91;;;11.10;100.00
38038;BME280;23843;51.320;12.340;2023-03-25T09:05:19;99321.56;;;11.01;100.00
38038;BME280;23843;51.320;12.340;2023-03-25T09:07:45;99319.75;;;11.14;100.00
38038;BME280;23843;51.320;12.340;2023-03-25T09:10:11;99310.31;;;11.34;100.00
38038;BME280;23843;51.320;12.340;2023-03-25T09:12:37;99318.19;;;11.71;100.00
38038;BME280;23843;51.320;12.340;2023-03-25T09:15:04;99323.03;;;12.13;97.54
38038;BME280;23843;51.320;12.340;2023-03-25T09:17:29;99303.97;;;12.53;92.63
38038;BME280;23843;51.320;12.340;2023-03-25T09:19:55;99301.22;;;13.32;83.00
38038;BME280;23843;51.320;12.340;2023-03-25T09:22:21;99295.91;;;13.09;82.65
38038;BME280;23843;51.320;12.340;2023-03-25T09:24:46;99288.97;;;12.85;84.87
38038;BME280;23843;51.320;12.340;2023-03-25T09:27:12;99289.09;;;12.84;83.96
38038;BME280;23843;51.320;12.340;2023-03-25T09:29:39;99283.56;;;12.64;80.84
38038;BME280;23843;51.320;12.340;2023-03-25T09:32:04;99288.88;;;12.53;79.20
38038;BME280;23843;51.320;12.340;2023-03-25T09:34:30;99290.34;;;12.46;80.33
38038;BME280;23843;51.320;12.340;2023-03-25T09:36:55;99293.09;;;12.33;81.90
38038;BME280;23843;51.320;12.340;2023-03-25T09:39:21;99290.34;;;12.35;78.44
38038;BME280;23843;51.320;12.340;2023-03-25T09:42:00;99298.88;;;12.16;80.09
38038;BME280;23843;51.320;12.340;2023-03-25T09:44:30;99290.78;;;11.95;85.12
38038;BME280;23843;51.320;12.340;2023-03-25T09:47:00;99295.28;;;11.82;86.48
38038;BME280;23843;51.320;12.340;2023-03-25T09:49:35;99294.44;;;11.81;87.19
38038;BME280;23843;51.320;12.340;2023-03-25T09:52:03;99305.06;;;11.81;88.54
38038;BME280;23843;51.320;12.340;2023-03-25T09:54:31;99305.34;;;11.89;87.07
38038;BME280;23843;51.320;12.340;2023-03-25T09:57:05;99308.38;;;11.96;86.20
38038;BME280;23843;51.320;12.340;2023-03-25T09:59:36;99308.31;;;12.31;83.37
38038;BME280;23843;51.320;12.340;2023-03-25T10:02:16;99306.25;;;12.57;80.11
38038;BME280;23843;51.320;12.340;2023-03-25T10:04:54;99303.84;;;12.77;78.72
38038;BME280;23843;51.320;12.340;2023-03-25T10:07:30;99276.88;;;12.93;78.55
38038;BME280;23843;51.320;12.340;2023-03-25T10:10:05;99284.06;;;13.13;79.38
38038;BME280;23843;51.320;12.340;2023-03-25T10:12:42;99293.69;;;13.25;71.38
38038;BME280;23843;51.320;12.340;2023-03-25T10:15:16;99284.34;;;13.42;72.79
38038;BME280;23843;51.320;12.340;2023-03-25T10:17:54;99281.44;;;13.87;68.31
38038;BME280;23843;51.320;12.340;2023-03-25T10:20:37;99284.50;;;14.25;69.38
38038;BME280;23843;51.320;12.340;2023-03-25T10:23:12;99286.88;;;14.28;66.36
38038;BME280;23843;51.320;12.340;2023-03-25T10:25:43;99287.59;;;14.09;65.75
38038;BME280;23843;51.320;12.340;2023-03-25T10:28:13;99282.06;;;13.91;66.10
38038;BME280;23843;51.320;12.340;2023-03-25T10:30:47;99292.50;;;13.62;66.35
38038;BME280;23843;51.320;12.340;2023-03-25T10:33:28;99292.69;;;13.49;65.92
38038;BME280;23843;51.320;12.340;2023-03-25T10:35:58;99291.69;;;13.29;64.69
38038;BME280;23843;51.320;12.340;2023-03-25T10:38:24;99296.91;;;13.08;65.04
38038;BME280;23843;51.320;12.340;2023-03-25T10:40:51;99292.94;;;13.02;65.25
38038;BME280;23843;51.320;12.340;2023-03-25T10:43:24;99295.44;;;13.04;67.47
38038;BME280;23843;51.320;12.340;2023-03-25T10:45:53;99280.94;;;13.08;69.02
38038;BME280;23843;51.320;12.340;2023-03-25T10:48:24;99287.47;;;13.04;66.00
38038;BME280;23843;51.320;12.340;2023-03-25T10:50:52;99295.22;;;12.96;66.80
38038;BME280;23843;51.320;12.340;2023-03-25T10:53:23;99291.56;;;13.08;66.49
38038;BME280;23843;51.320;12.340;2023-03-25T10:55:53;99287.19;;;13.18;66.40
38038;BME280;23843;51.320;12.340;2023-03-25T10:58:20;99284.69;;;13.17;65.69
38038;BME280;23843;51.320;12.340;2023-03-25T11:00:46;99294.34;;;13.06;64.77
38038;BME280;23843;51.320;12.340;2023-03-25T11:03:15;99292.78;;;13.04;65.88
38038;BME280;23843;51.320;12.340;2023-03-25T11:05:43;99292.97;;;12.57;67.16
38038;BME280;23843;51.320;12.340;2023-03-25T11:08:09;99299.28;;;12.56;65.95
38038;BME280;23843;51.320;12.340;2023-03-25T11:10:35;99301.78;;;12.69;66.55
38038;BME280;23843;51.320;12.340;2023-03-25T11:13:01;99295.16;;;12.63;65.78
38038;BME280;23843;51.320;12.340;2023-03-25T11:15:30;99305.53;;;12.78;65.86
38038;BME280;23843;51.320;12.340;2023-03-25T11:17:58;99286.78;;;12.79;65.86
38038;BME280;23843;51.320;12.340;2023-03-25T11:20:27;99291.84;;;12.82;66.33
38038;BME280;23843;51.320;12.340;2023-03-25T11:23:01;99281.22;;;12.82;68.27
38038;BME280;23843;51.320;12.340;2023-03-25T11:25:29;99277.63;;;12.83;68.82
38038;BME280;23843;51.320;12.340;2023-03-25T11:27:56;99287.16;;;12.86;70.46
38038;BME280;23843;51.320;12.340;2023-03-25T11:30:24;99265.16;;;12.95;69.76
38038;BME280;23843;51.320;12.340;2023-03-25T11:32:56;99260.84;;;12.72;68.51
38038;BME280;23843;51.320;12.340;2023-03-25T11:35:25;99262.50;;;12.73;66.21
38038;BME280;23843;51.320;12.340;2023-03-25T11:37:56;99263.84;;;12.78;66.00
38038;BME280;23843;51.320;12.340;2023-03-25T11:40:21;99261.50;;;12.96;64.40
38038;BME280;23843;51.320;12.340;2023-03-25T11:42:51;99266.25;;;12.93;64.39
38038;BME280;23843;51.320;12.340;2023-03-25T11:45:19;99253.81;;;13.14;64.84
38038;BME280;23843;51.320;12.340;2023-03-25T11:47:45;99244.38;;;13.33;64.81
38038;BME280;23843;51.320;12.340;2023-03-25T11:50:19;99239.91;;;13.54;63.71
38038;BME280;23843;51.320;12.340;2023-03-25T11:52:46;99226.66;;;13.85;61.53
38038;BME280;23843;51.320;12.340;2023-03-25T11:55:18;99239.44;;;13.91;59.91
38038;BME280;23843;51.320;12.340;2023-03-25T11:57:46;99233.19;;;14.02;60.09
38038;BME280;23843;51.320;12.340;2023-03-25T12:00:26;99227.91;;;14.11;58.29
38038;BME280;23843;51.320;12.340;2023-03-25T12:02:58;99224.81;;;14.06;56.56
38038;BME280;23843;51.320;12.340;2023-03-25T12:05:24;99213.63;;;14.12;58.72
38038;BME280;23843;51.320;12.340;2023-03-25T12:07:51;99214.06;;;13.87;58.34
38038;BME280;23843;51.320;12.340;2023-03-25T12:10:35;99215.88;;;13.86;60.04
38038;BME280;23843;51.320;12.340;2023-03-25T12:13:09;99216.94;;;13.74;61.90
38038;BME280;23843;51.320;12.340;2023-03-25T12:15:41;99229.78;;;13.27;65.96
38038;BME280;23843;51.320;12.340;2023-03-25T12:18:33;99229.31;;;13.11;75.29
38038;BME280;23843;51.320;12.340;2023-03-25T12:21:11;99222.16;;;12.79;86.09
38038;BME280;23843;51.320;12.340;2023-03-25T12:23:46;99233.47;;;12.49;91.07
38038;BME280;23843;51.320;12.340;2023-03-25T12:26:23;99226.94;;;12.53;95.92
38038;BME280;23843;51.320;12.340;2023-03-25T12:29:18;99226.03;;;12.75;89.50
38038;BME280;23843;51.320;12.340;2023-03-25T12:31:57;99202.66;;;13.01;90.22
38038;BME280;23843;51.320;12.340;2023-03-25T12:34:35;99204.56;;;13.10;88.14
38038;BME280;23843;51.320;12.340;2023-03-25T12:37:08;99195.00;;;13.40;89.20
38038;BME280;23843;51.320;12.340;2023-03-25T12:39:48;99187.59;;;13.64;85.49
38038;BME280;23843;51.320;12.340;2023-03-25T12:42:28;99173.69;;;13.82;81.37
38038;BME280;23843;51.320;12.340;2023-03-25T12:45:23;99158.66;;;14.11;80.43
38038;BME280;23843;51.320;12.340;2023-03-25T12:47:55;99154.78;;;14.16;71.82
38038;BME280;23843;51.320;12.340;2023-03-25T12:50:31;99145.91;;;14.05;72.97
38038;BME280;23843;51.320;12.340;2023-03-25T12:53:09;99138.28;;;13.91;74.76
38038;BME280;23843;51.320;12.340;2023-03-25T12:55:56;99131.09;;;13.82;61.11
38038;BME280;23843;51.320;12.340;2023-03-25T12:58:40;99143.16;;;13.86;61.54
38038;BME280;23843;51.320;12.340;2023-03-25T13:01:15;99155.28;;;13.69;61.44
38038;BME280;23843;51.320;12.340;2023-03-25T13:04:00;99168.06;;;13.12;70.03
38038;BME280;23843;51.320;12.340;2023-03-25T13:06:34;99193.41;;;12.84;80.70
38038;BME280;23843;51.320;12.340;2023-03-25T13:09:07;99220.91;;;12.39;92.43
38038;BME280;23843;51.320;12.340;2023-03-25T13:11:38;99264.28;;;11.71;100.00
38038;BME280;23843;51.320;12.340;2023-03-25T13:14:11;99256.47;;;10.86;100.00
38038;BME280;23843;51.320;12.340;2023-03-25T13:16:40;99254.34;;;10.54;100.00
38038;BME280;23843;51.320;12.340;2023-03-25T13:19:10;99250.19;;;10.50;100.00
38038;BME280;23843;51.320;12.340;2023-03-25T13:21:39;99242.16;;;10.52;100.00
38038;BME280;23843;51.320;12.340;2023-03-25T13:24:09;99243.13;;;10.38;100.00
38038;BME280;23843;51.320;12.340;2023-03-25T13:26:39;99234.97;;;10.41;100.00
38038;BME280;23843;51.320;12.340;2023-03-25T13:29:11;99225.75;;;10.34;100.00
38038;BME280;23843;51.320;12.340;2023-03-25T13:31:41;99206.50;;;10.19;100.00
38038;BME280;23843;51.320;12.340;2023-03-25T13:34:17;99210.31;;;10.27;100.00
38038;BME280;23843;51.320;12.340;2023-03-25T13:36:59;99206.28;;;10.35;100.00
38038;BME280;23843;51.320;12.340;2023-03-25T13:39:45;99209.47;;;10.40;100.00
38038;BME280;23843;51.320;12.340;2023-03-25T13:42:16;99211.13;;;10.41;100.00
38038;BME280;23843;51.320;12.340;2023-03-25T13:44:45;99207.56;;;10.42;100.00
38038;BME280;23843;51.320;12.340;2023-03-25T13:47:16;99207.38;;;10.32;100.00
38038;BME280;23843;51.320;12.340;2023-03-25T13:49:48;99198.41;;;10.46;100.00
38038;BME280;23843;51.320;12.340;2023-03-25T13:52:15;99199.88;;;10.50;100.00
38038;BME280;23843;51.320;12.340;2023-03-25T13:54:44;99204.28;;;10.62;100.00
38038;BME280;23843;51.320;12.340;2023-03-25T13:57:27;99198.34;;;10.71;100.00
38038;BME280;23843;51.320;12.340;2023-03-25T14:00:19;99215.19;;;10.70;100.00
38038;BME280;23843;51.320;12.340;2023-03-25T14:02:58;99203.16;;;10.78;100.00
38038;BME280;23843;51.320;12.340;2023-03-25T14:11:39;99210.38;;;10.52;100.00
38038;BME280;23843;51.320;12.340;2023-03-25T14:14:09;99199.56;;;10.55;100.00
38038;BME280;23843;51.320;12.340;2023-03-25T14:16:41;99216.38;;;10.66;100.00
38038;BME280;23843;51.320;12.340;2023-03-25T14:19:11;99225.06;;;10.68;100.00
38038;BME280;23843;51.320;12.340;2023-03-25T14:21:41;99232.53;;;10.38;100.00
38038;BME280;23843;51.320;12.340;2023-03-25T14:24:10;99228.25;;;10.61;100.00
38038;BME280;23843;51.320;12.340;2023-03-25T14:26:42;99222.78;;;10.51;100.00
38038;BME280;23843;51.320;12.340;2023-03-25T14:29:17;99225.19;;;10.54;100.00
38038;BME280;23843;51.320;12.340;2023-03-25T14:32:04;99224.00;;;10.58;100.00
38038;BME280;23843;51.320;12.340;2023-03-25T14:34:30;99213.38;;;10.71;100.00
38038;BME280;23843;51.320;12.340;2023-03-25T14:37:22;99224.16;;;10.81;100.00
38038;BME280;23843;51.320;12.340;2023-03-25T14:39:49;99214.22;;;10.96;100.00
38038;BME280;23843;51.320;12.340;2023-03-25T14:42:26;99205.22;;;10.98;100.00
38038;BME280;23843;51.320;12.340;2023-03-25T14:44:52;99209.66;;;10.98;100.00
38038;BME280;23843;51.320;12.340;2023-03-25T14:47:30;99215.31;;;10.93;100.00
38038;BME280;23843;51.320;12.340;2023-03-25T14:50:05;99210.03;;;11.04;100.00
38038;BME280;23843;51.320;12.340;2023-03-25T14:52:54;99216.88;;;10.96;100.00
38038;BME280;23843;51.320;12.340;2023-03-25T14:55:25;99217.88;;;10.82;100.00
38038;BME280;23843;51.320;12.340;2023-03-25T14:57:56;99217.16;;;10.80;100.00
38038;BME280;23843;51.320;12.340;2023-03-25T15:00:25;99206.06;;;10.75;100.00
38038;BME280;23843;51.320;12.340;2023-03-25T15:02:59;99210.56;;;10.85;100.00
38038;BME280;23843;51.320;12.340;2023-03-25T15:05:27;99195.97;;;10.80;100.00
38038;BME280;23843;51.320;12.340;2023-03-25T15:07:57;99209.66;;;10.98;100.00
38038;BME280;23843;51.320;12.340;2023-03-25T15:10:25;99214.34;;;10.94;100.00
38038;BME280;23843;51.320;12.340;2023-03-25T15:12:55;99215.34;;;11.04;100.00
38038;BME280;23843;51.320;12.340;2023-03-25T15:15:28;99216.81;;;11.08;100.00
38038;BME280;23843;51.320;12.340;2023-03-25T15:17:54;99221.72;;;11.02;100.00
38038;BME280;23843;51.320;12.340;2023-03-25T15:20:33;99213.16;;;10.98;100.00
38038;BME280;23843;51.320;12.340;2023-03-25T15:23:34;99220.47;;;10.95;100.00
38038;BME280;23843;51.320;12.340;2023-03-25T15:26:03;99216.47;;;10.89;100.00
38038;BME280;23843;51.320;12.340;2023-03-25T15:32:02;99222.84;;;10.86;100.00
38038;BME280;23843;51.320;12.340;2023-03-25T15:34:43;99216.59;;;10.87;100.00
38038;BME280;23843;51.320;12.340;2023-03-25T15:37:23;99220.44;;;10.83;100.00
38038;BME280;23843;51.320;12.340;2023-03-25T15:40:06;99217.38;;;11.01;100.00
38038;BME280;23843;51.320;12.340;2023-03-25T15:45:39;99212.25;;;11.10;100.00
38038;BME280;23843;51.320;12.340;2023-03-25T15:48:23;99211.19;;;11.13;100.00
38038;BME280;23843;51.320;12.340;2023-03-25T15:51:04;99214.47;;;11.28;98.55
38038;BME280;23843;51.320;12.340;2023-03-25T15:56:20;99208.50;;;11.48;98.00
38038;BME280;23843;51.320;12.340;2023-03-25T15:58:51;99208.50;;;11.48;96.09
38038;BME280;23843;51.320;12.340;2023-03-25T16:01:23;99209.97;;;11.52;93.24
38038;BME280;23843;51.320;12.340;2023-03-25T16:03:56;99216.97;;;11.53;93.21
38038;BME280;23843;51.320;12.340;2023-03-25T16:06:24;99212.28;;;11.57;93.96
38038;BME280;23843;51.320;12.340;2023-03-25T16:08:51;99222.03;;;11.56;90.05
38038;BME280;23843;51.320;12.340;2023-03-25T16:11:24;99221.06;;;11.57;87.77
38038;BME280;23843;51.320;12.340;2023-03-25T16:14:04;99213.50;;;11.64;88.12
38038;BME280;23843;51.320;12.340;2023-03-25T16:16:31;99214.31;;;11.65;87.36
38038;BME280;23843;51.320;12.340;2023-03-25T16:18:57;99215.78;;;11.69;86.79
38038;BME280;23843;51.320;12.340;2023-03-25T16:21:23;99212.16;;;11.70;86.78
38038;BME280;23843;51.320;12.340;2023-03-25T16:23:51;99206.41;;;11.76;87.08
38038;BME280;23843;51.320;12.340;2023-03-25T16:26:32;99208.31;;;11.74;89.07
38038;BME280;23843;51.320;12.340;2023-03-25T16:29:05;99214.75;;;11.94;85.73
38038;BME280;23843;51.320;12.340;2023-03-25T16:31:32;99212.00;;;11.95;84.80
38038;BME280;23843;51.320;12.340;2023-03-25T16:33:58;99197.03;;;12.06;85.69
38038;BME280;23843;51.320;12.340;2023-03-25T16:36:24;99205.38;;;12.12;85.57
38038;BME280;23843;51.320;12.340;2023-03-25T16:38:50;99206.22;;;12.24;85.86
38038;BME280;23843;51.320;12.340;2023-03-25T16:41:15;99208.25;;;12.20;84.21
38038;BME280;23843;51.320;12.340;2023-03-25T16:43:42;99201.38;;;12.18;85.28
38038;BME280;23843;51.320;12.340;2023-03-25T16:46:09;99190.75;;;12.18;82.80
38038;BME280;23843;51.320;12.340;2023-03-25T16:48:37;99196.44;;;12.13;83.84
38038;BME280;23843;51.320;12.340;2023-03-25T16:51:07;99193.28;;;12.08;84.97
38038;BME280;23843;51.320;12.340;2023-03-25T16:53:35;99193.66;;;12.04;85.97
38038;BME280;23843;51.320;12.340;2023-03-25T16:56:19;99184.00;;;12.03;86.65
38038;BME280;23843;51.320;12.340;2023-03-25T16:58:54;99196.53;;;11.89;86.62
38038;BME280;23843;51.320;12.340;2023-03-25T17:01:21;99187.84;;;11.87;86.45
38038;BME280;23843;51.320;12.340;2023-03-25T17:03:48;99186.84;;;11.77;88.04
38038;BME280;23843;51.320;12.340;2023-03-25T17:06:18;99199.38;;;11.75;90.37
38038;BME280;23843;51.320;12.340;2023-03-25T17:08:48;99203.84;;;11.74;89.04
38038;BME280;23843;51.320;12.340;2023-03-25T17:11:15;99200.38;;;11.74;88.38
38038;BME280;23843;51.320;12.340;2023-03-25T17:13:43;99201.44;;;11.71;88.61
38038;BME280;23843;51.320;12.340;2023-03-25T17:16:10;99204.41;;;11.55;89.25
38038;BME280;23843;51.320;12.340;2023-03-25T17:18:36;99206.13;;;11.56;88.92
38038;BME280;23843;51.320;12.340;2023-03-25T17:21:07;99212.38;;;11.55;89.40
38038;BME280;23843;51.320;12.340;2023-03-25T17:23:34;99214.44;;;11.52;88.95
38038;BME280;23843;51.320;12.340;2023-03-25T17:26:04;99224.19;;;11.51;88.92
38038;BME280;23843;51.320;12.340;2023-03-25T17:28:33;99227.44;;;11.44;90.26
38038;BME280;23843;51.320;12.340;2023-03-25T17:30:59;99236.44;;;11.30;91.60
38038;BME280;23843;51.320;12.340;2023-03-25T17:33:49;99243.25;;;11.21;94.26
38038;BME280;23843;51.320;12.340;2023-03-25T17:36:16;99244.47;;;11.17;95.40
38038;BME280;23843;51.320;12.340;2023-03-25T17:38:43;99254.75;;;11.09;99.16
38038;BME280;23843;51.320;12.340;2023-03-25T17:41:10;99260.22;;;10.95;100.00
38038;BME280;23843;51.320;12.340;2023-03-25T17:43:40;99255.56;;;10.98;100.00
38038;BME280;23843;51.320;12.340;2023-03-25T17:46:06;99246.13;;;10.94;100.00
38038;BME280;23843;51.320;12.340;2023-03-25T17:48:33;99244.88;;;10.87;100.00
38038;BME280;23843;51.320;12.340;2023-03-25T17:50:59;99249.16;;;10.77;100.00
38038;BME280;23843;51.320;12.340;2023-03-25T17:53:25;99259.34;;;10.70;100.00
38038;BME280;23843;51.320;12.340;2023-03-25T17:55:51;99259.69;;;10.65;100.00
38038;BME280;23843;51.320;12.340;2023-03-25T17:58:19;99262.88;;;10.58;100.00
38038;BME280;23843;51.320;12.340;2023-03-25T18:00:46;99258.97;;;10.50;100.00
38038;BME280;23843;51.320;12.340;2023-03-25T18:03:13;99261.53;;;10.52;100.00
38038;BME280;23843;51.320;12.340;2023-03-25T18:05:39;99267.25;;;10.59;100.00
38038;BME280;23843;51.320;12.340;2023-03-25T18:08:08;99278.03;;;10.56;100.00
38038;BME280;23843;51.320;12.340;2023-03-25T18:10:36;99284.81;;;10.60;100.00
38038;BME280;23843;51.320;12.340;2023-03-25T18:13:02;99278.22;;;10.65;100.00
38038;BME280;23843;51.320;12.340;2023-03-25T18:15:28;99285.84;;;10.70;100.00
38038;BME280;23843;51.320;12.340;2023-03-25T18:17:53;99293.69;;;10.71;100.00
38038;BME280;23843;51.320;12.340;2023-03-25T18:20:24;99292.53;;;10.76;100.00
38038;BME280;23843;51.320;12.340;2023-03-25T18:22:51;99282.44;;;10.81;100.00
38038;BME280;23843;51.320;12.340;2023-03-25T18:25:18;99292.81;;;10.84;100.00
38038;BME280;23843;51.320;12.340;2023-03-25T18:27:48;99310.63;;;10.82;100.00
38038;BME280;23843;51.320;12.340;2023-03-25T18:30:17;99315.41;;;10.77;100.00
38038;BME280;23843;51.320;12.340;2023-03-25T18:32:44;99323.25;;;10.65;100.00
38038;BME280;23843;51.320;12.340;2023-03-25T18:35:09;99315.75;;;10.59;100.00
38038;BME280;23843;51.320;12.340;2023-03-25T18:37:34;99279.28;;;10.63;100.00
38038;BME280;23843;51.320;12.340;2023-03-25T18:40:00;99287.38;;;10.61;100.00
38038;BME280;23843;51.320;12.340;2023-03-25T18:42:27;99291.81;;;10.48;100.00
38038;BME280;23843;51.320;12.340;2023-03-25T18:44:52;99282.94;;;10.49;100.00
38038;BME280;23843;51.320;12.340;2023-03-25T18:47:18;99288.88;;;10.40;100.00